Columbus, Ohio
Traffic Map
Current Weather Conditions
Columbus, Ohio
Broken Clouds
Broken Clouds

Feels Like: -1°
Wind Chill: -1° Ceiling: 8500
Heat Index: Visibility: 10mi
Dew Point: -2° Wind: 14mph
Humidity: 65% Direction: 230° (SW)
Pressure: 29.62in Gusts: 0mph
Raw Report DataKCMH 120451Z 23012KT 10SM BKN085 04/M02 A2962 RMK AO2 SLP036 T00391022 400391006
Traffic Incident Summary
Active as of:
Severity:
Category:
InformationThere was an issue retrieving the traffic information for this location. Please try a different location or try again shortly.
Advertisements